Time;durP1;ratioP1;P1;durP2;ratioP2;P2;SDS_P1;SDS_P2;PMS_P1;PMS_P2;Temp;Humidity;BMP_temperature;BMP_pressure;BME280_temperature;BME280_humidity;BME280_pressure;Samples;Min_cycle;Max_cycle;Signal;HPM_P1;HPM_P2
2022/10/09 00:01:18;;;;;;;;;;;20.40;49.20;;;;;;8363898;28;19996;-42
2022/10/09 00:05:19;;;;;;;;;;;20.40;49.20;;;;;;8363674;28;19959;-42
2022/10/09 00:09:20;;;;;;;;;;;20.40;49.20;;;;;;8363190;28;19917;-43
2022/10/09 00:13:20;;;;;;;;;;;20.40;49.10;;;;;;8363488;28;19954;-42
2022/10/09 00:17:21;;;;;;;;;;;20.40;49.20;;;;;;8363493;28;19917;-42
2022/10/09 00:21:23;;;;;;;;;;;20.40;49.20;;;;;;8363064;28;19999;-43
2022/10/09 00:25:24;;;;;;;;;;;20.40;49.20;;;;;;8363301;28;19947;-43
2022/10/09 00:29:24;;;;;;;;;;;20.40;49.20;;;;;;8363386;28;20008;-43
2022/10/09 00:33:25;;;;;;;;;;;20.30;49.10;;;;;;8362594;28;20370;-43
2022/10/09 00:37:26;;;;;;;;;;;20.40;49.20;;;;;;8363117;28;19917;-43
2022/10/09 00:41:28;;;;;;;;;;;20.30;49.10;;;;;;8363118;28;19924;-42
2022/10/09 00:45:30;;;;;;;;;;;20.30;49.10;;;;;;8362654;28;19936;-43
2022/10/09 00:49:31;;;;;;;;;;;20.30;49.00;;;;;;8363185;28;19917;-43
2022/10/09 00:53:31;;;;;;;;;;;20.40;49.10;;;;;;8363012;28;19917;-42
2022/10/09 00:57:32;;;;;;;;;;;20.30;49.10;;;;;;8362361;28;19917;-44
2022/10/09 01:01:33;;;;;;;;;;;20.30;49.00;;;;;;8358614;28;20321;-43
2022/10/09 01:05:42;;;;;;;;;;;20.30;49.10;;;;;;8360948;28;20042;-43
2022/10/09 01:09:49;;;;;;;;;;;20.30;49.10;;;;;;8369131;28;19968;-43
2022/10/09 01:13:57;;;;;;;;;;;20.30;49.00;;;;;;8368976;28;19928;-42
2022/10/09 01:17:58;;;;;;;;;;;20.30;49.10;;;;;;8368315;28;20062;-43
2022/10/09 01:22:13;;;;;;;;;;;20.30;49.00;;;;;;8369098;28;20339;-43
2022/10/09 01:26:37;;;;;;;;;;;20.30;49.00;;;;;;8368852;28;19960;-43
2022/10/09 01:30:37;;;;;;;;;;;20.20;49.00;;;;;;8368091;28;19916;-43
2022/10/09 01:34:39;;;;;;;;;;;20.20;49.00;;;;;;8368085;28;19924;-43
2022/10/09 01:38:41;;;;;;;;;;;20.20;49.00;;;;;;8367714;28;20321;-42
2022/10/09 01:42:41;;;;;;;;;;;20.20;49.00;;;;;;8367801;28;19925;-44
2022/10/09 01:46:42;;;;;;;;;;;20.20;49.00;;;;;;8368158;28;19948;-43
2022/10/09 01:50:44;;;;;;;;;;;20.20;49.00;;;;;;8367268;28;19999;-44
2022/10/09 01:54:51;;;;;;;;;;;20.20;49.00;;;;;;8367552;28;19919;-43
2022/10/09 01:58:56;;;;;;;;;;;20.20;49.00;;;;;;8367570;28;20289;-43
2022/10/09 02:02:57;;;;;;;;;;;20.20;49.00;;;;;;8366885;28;19921;-43
2022/10/09 02:06:58;;;;;;;;;;;20.20;49.00;;;;;;8367535;28;19971;-43
2022/10/09 02:11:00;;;;;;;;;;;20.20;49.00;;;;;;8367273;28;19921;-43
2022/10/09 02:15:00;;;;;;;;;;;20.20;49.00;;;;;;8366667;28;19952;-45
2022/10/09 02:19:09;;;;;;;;;;;20.20;49.00;;;;;;8365989;28;19916;-44
2022/10/09 02:23:10;;;;;;;;;;;20.20;49.50;;;;;;8366979;28;19918;-43
2022/10/09 02:27:11;;;;;;;;;;;20.10;49.00;;;;;;8366422;28;19967;-44
2022/10/09 02:31:16;;;;;;;;;;;20.10;49.00;;;;;;8366494;28;19917;-43
2022/10/09 02:35:17;;;;;;;;;;;20.10;49.00;;;;;;8366451;28;19958;-44
2022/10/09 02:39:17;;;;;;;;;;;20.10;49.00;;;;;;8365853;28;19921;-43
2022/10/09 02:43:18;;;;;;;;;;;20.10;49.00;;;;;;8366050;28;19963;-44
2022/10/09 02:47:18;;;;;;;;;;;20.10;49.00;;;;;;8366187;28;19931;-44
2022/10/09 02:51:19;;;;;;;;;;;20.10;49.00;;;;;;8364731;28;19927;-43
2022/10/09 02:55:19;;;;;;;;;;;20.10;49.00;;;;;;8365855;28;19921;-43
2022/10/09 02:59:19;;;;;;;;;;;20.10;49.00;;;;;;8365702;28;19917;-44
2022/10/09 03:03:20;;;;;;;;;;;20.10;49.00;;;;;;8364894;28;20004;-44
2022/10/09 03:07:20;;;;;;;;;;;20.10;49.00;;;;;;8365619;28;19950;-43
2022/10/09 03:11:22;;;;;;;;;;;20.00;49.00;;;;;;8365184;28;20235;-45
2022/10/09 03:15:22;;;;;;;;;;;20.10;49.00;;;;;;8364501;28;19959;-43
2022/10/09 03:19:23;;;;;;;;;;;20.00;48.90;;;;;;8365009;28;20007;-43
2022/10/09 03:23:24;;;;;;;;;;;20.00;48.90;;;;;;8364733;28;19967;-43
2022/10/09 03:27:24;;;;;;;;;;;20.00;49.00;;;;;;8364503;28;20297;-44
2022/10/09 03:31:25;;;;;;;;;;;20.10;49.00;;;;;;8364774;28;19948;-43
2022/10/09 03:35:25;;;;;;;;;;;20.00;48.90;;;;;;8364244;28;20475;-44
2022/10/09 03:39:26;;;;;;;;;;;20.00;48.90;;;;;;8363839;28;20355;-44
2022/10/09 03:43:27;;;;;;;;;;;20.00;49.00;;;;;;8364020;28;19924;-43
2022/10/09 03:47:28;;;;;;;;;;;20.00;48.90;;;;;;8364333;28;19916;-44
2022/10/09 03:51:28;;;;;;;;;;;20.00;48.90;;;;;;8363322;28;19920;-45
2022/10/09 03:55:29;;;;;;;;;;;20.00;48.90;;;;;;8363895;28;20275;-43
2022/10/09 03:59:29;;;;;;;;;;;20.00;48.90;;;;;;8363833;28;20390;-44
2022/10/09 04:03:29;;;;;;;;;;;20.00;49.00;;;;;;8363156;28;19924;-43
2022/10/09 04:07:30;;;;;;;;;;;20.00;48.90;;;;;;8364035;28;19916;-43
2022/10/09 04:11:30;;;;;;;;;;;20.00;48.90;;;;;;8359133;28;20050;-45
2022/10/09 04:15:31;;;;;;;;;;;20.00;48.90;;;;;;8363002;28;19948;-43
2022/10/09 04:19:32;;;;;;;;;;;20.00;48.90;;;;;;8363362;28;19916;-43
2022/10/09 04:23:32;;;;;;;;;;;20.00;48.90;;;;;;8363317;28;20338;-43
2022/10/09 04:27:32;;;;;;;;;;;20.00;48.90;;;;;;8363204;28;20004;-43
2022/10/09 04:31:33;;;;;;;;;;;20.00;48.80;;;;;;8363291;28;20007;-44
2022/10/09 04:35:33;;;;;;;;;;;20.00;48.80;;;;;;8363183;28;19970;-45
2022/10/09 04:39:34;;;;;;;;;;;20.00;48.80;;;;;;8362794;28;19917;-43
2022/10/09 04:43:34;;;;;;;;;;;20.00;48.80;;;;;;8370029;28;19944;-43
2022/10/09 04:47:35;;;;;;;;;;;20.00;48.80;;;;;;8370152;28;19917;-43
2022/10/09 04:51:35;;;;;;;;;;;19.90;48.80;;;;;;8369138;28;19923;-43
2022/10/09 04:55:42;;;;;;;;;;;19.90;48.80;;;;;;8369367;28;19928;-43
2022/10/09 04:59:43;;;;;;;;;;;19.90;48.80;;;;;;8368929;28;19917;-43
2022/10/09 05:03:43;;;;;;;;;;;19.90;48.80;;;;;;8369109;28;19920;-43
2022/10/09 05:07:44;;;;;;;;;;;19.90;48.90;;;;;;8369605;28;20008;-43
2022/10/09 05:11:44;;;;;;;;;;;19.90;48.80;;;;;;8368536;28;20374;-43
2022/10/09 05:15:45;;;;;;;;;;;19.90;48.80;;;;;;8369087;28;19924;-42
2022/10/09 05:19:45;;;;;;;;;;;19.90;48.80;;;;;;8368698;28;19917;-42
2022/10/09 05:23:46;;;;;;;;;;;19.90;48.80;;;;;;8368032;28;19913;-43
2022/10/09 05:27:46;;;;;;;;;;;19.90;48.80;;;;;;8368994;28;19913;-42
2022/10/09 05:31:47;;;;;;;;;;;19.90;48.70;;;;;;8368542;28;19920;-42
2022/10/09 05:35:52;;;;;;;;;;;19.90;48.80;;;;;;8367738;28;19921;-42
2022/10/09 05:39:52;;;;;;;;;;;19.80;48.70;;;;;;8368013;28;19999;-42
2022/10/09 05:43:53;;;;;;;;;;;19.80;48.70;;;;;;8368035;28;20435;-42
2022/10/09 05:47:53;;;;;;;;;;;19.90;48.80;;;;;;8367615;28;19949;-44
2022/10/09 05:51:54;;;;;;;;;;;19.90;48.80;;;;;;8367633;28;19928;-42
2022/10/09 05:55:55;;;;;;;;;;;19.80;48.70;;;;;;8367491;28;19917;-43
2022/10/09 05:59:55;;;;;;;;;;;19.80;48.70;;;;;;8367029;28;20344;-43
2022/10/09 06:03:56;;;;;;;;;;;19.90;48.70;;;;;;8367558;28;19916;-42
2022/10/09 06:07:57;;;;;;;;;;;19.80;48.60;;;;;;8367433;28;19917;-43
2022/10/09 06:11:57;;;;;;;;;;;19.80;48.70;;;;;;8366784;28;19967;-42
2022/10/09 06:15:58;;;;;;;;;;;19.80;48.70;;;;;;8366991;28;19917;-43
2022/10/09 06:19:58;;;;;;;;;;;19.80;48.60;;;;;;8367038;28;20354;-42
2022/10/09 06:23:59;;;;;;;;;;;19.80;48.60;;;;;;8366563;28;19928;-43
2022/10/09 06:28:00;;;;;;;;;;;19.80;48.60;;;;;;8366703;28;19982;-43
2022/10/09 06:32:00;;;;;;;;;;;19.80;48.60;;;;;;8366465;28;19917;-42
2022/10/09 06:36:02;;;;;;;;;;;19.80;48.60;;;;;;8365923;28;20428;-43
2022/10/09 06:40:03;;;;;;;;;;;19.80;48.60;;;;;;8366192;28;19921;-43
2022/10/09 06:44:04;;;;;;;;;;;19.80;48.60;;;;;;8366188;28;19932;-43
2022/10/09 06:48:05;;;;;;;;;;;19.80;48.60;;;;;;8365400;28;20391;-42
2022/10/09 06:52:05;;;;;;;;;;;19.80;48.60;;;;;;8366199;28;20484;-43
2022/10/09 06:56:07;;;;;;;;;;;19.80;48.60;;;;;;8365796;28;19917;-43
2022/10/09 07:00:08;;;;;;;;;;;19.80;48.60;;;;;;8365352;28;20355;-43
2022/10/09 07:04:09;;;;;;;;;;;19.80;48.60;;;;;;8365271;28;19920;-42
2022/10/09 07:08:10;;;;;;;;;;;19.80;48.60;;;;;;8339708;28;20044;-43
2022/10/09 07:12:10;;;;;;;;;;;19.80;48.70;;;;;;8354550;28;19924;-43
2022/10/09 07:16:11;;;;;;;;;;;19.80;48.60;;;;;;8365384;28;19916;-44
2022/10/09 07:20:11;;;;;;;;;;;19.80;48.60;;;;;;8364931;28;19917;-43
2022/10/09 07:24:12;;;;;;;;;;;19.80;48.60;;;;;;8364677;28;19921;-44
2022/10/09 07:28:12;;;;;;;;;;;19.80;48.60;;;;;;8364810;28;19917;-43
2022/10/09 07:32:13;;;;;;;;;;;19.80;48.60;;;;;;8364819;28;19917;-42
2022/10/09 07:36:13;;;;;;;;;;;19.80;48.60;;;;;;8364141;28;19963;-42
2022/10/09 07:40:14;;;;;;;;;;;19.80;48.60;;;;;;8364466;28;19921;-45
2022/10/09 07:44:14;;;;;;;;;;;19.80;48.60;;;;;;8364593;28;19927;-44
2022/10/09 07:48:14;;;;;;;;;;;19.80;48.60;;;;;;8363835;28;19917;-44
2022/10/09 07:52:15;;;;;;;;;;;19.80;48.60;;;;;;8364431;28;19989;-44
2022/10/09 07:56:22;;;;;;;;;;;19.80;48.60;;;;;;8363968;28;19945;-43
2022/10/09 08:00:22;;;;;;;;;;;19.80;48.60;;;;;;8363413;28;19917;-44
2022/10/09 08:04:23;;;;;;;;;;;19.80;48.60;;;;;;8363796;28;20405;-44
2022/10/09 08:08:23;;;;;;;;;;;19.80;48.60;;;;;;8363817;28;19924;-44
2022/10/09 08:12:24;;;;;;;;;;;19.80;48.60;;;;;;8363193;28;19917;-44
2022/10/09 08:16:25;;;;;;;;;;;19.80;48.60;;;;;;8362533;28;20297;-43
2022/10/09 08:20:25;;;;;;;;;;;19.80;48.60;;;;;;8363291;28;20369;-44
2022/10/09 08:24:26;;;;;;;;;;;19.80;48.60;;;;;;8363119;28;19921;-43
2022/10/09 08:28:26;;;;;;;;;;;19.80;48.60;;;;;;8363379;28;19916;-44
2022/10/09 08:32:27;;;;;;;;;;;19.80;48.60;;;;;;8363185;28;19917;-44
2022/10/09 08:36:27;;;;;;;;;;;19.80;48.50;;;;;;8362605;28;19928;-44
2022/10/09 08:40:48;;;;;;;;;;;19.90;48.60;;;;;;8363020;28;20365;-44
2022/10/09 08:44:49;;;;;;;;;;;19.80;48.50;;;;;;8348752;28;20373;-44
2022/10/09 08:48:50;;;;;;;;;;;19.90;48.60;;;;;;8363024;28;19921;-44
2022/10/09 08:52:59;;;;;;;;;;;19.80;48.60;;;;;;8362950;28;19917;-44
2022/10/09 08:57:01;;;;;;;;;;;19.90;48.60;;;;;;8362725;28;19924;-43
2022/10/09 09:01:18;;;;;;;;;;;19.90;48.60;;;;;;8362814;28;19999;-44
2022/10/09 09:05:51;;;;;;;;;;;19.80;48.60;;;;;;8362706;28;20381;-43
2022/10/09 09:10:09;;;;;;;;;;;19.90;48.60;;;;;;8308031;28;19913;-43
2022/10/09 09:14:18;;;;;;;;;;;19.90;48.60;;;;;;8362661;28;19921;-42
2022/10/09 09:18:31;;;;;;;;;;;19.90;48.60;;;;;;8362084;28;19917;-42
2022/10/09 09:22:32;;;;;;;;;;;19.90;48.60;;;;;;8362349;28;19917;-44
2022/10/09 09:26:32;;;;;;;;;;;19.90;48.60;;;;;;8364170;28;19964;-43
2022/10/09 09:30:36;;;;;;;;;;;19.90;48.60;;;;;;8368056;28;19913;-43
2022/10/09 09:34:37;;;;;;;;;;;19.90;48.60;;;;;;8368907;28;19993;-44
2022/10/09 09:38:38;;;;;;;;;;;19.90;48.60;;;;;;8367786;28;19923;-44
2022/10/09 09:42:38;;;;;;;;;;;19.90;48.60;;;;;;8368012;28;20275;-44
2022/10/09 09:46:40;;;;;;;;;;;19.90;48.60;;;;;;8367760;28;19932;-44
2022/10/09 09:50:42;;;;;;;;;;;19.90;48.60;;;;;;8367280;28;19943;-43
2022/10/09 09:54:46;;;;;;;;;;;19.90;48.50;;;;;;8367841;28;19916;-43
2022/10/09 09:58:48;;;;;;;;;;;19.90;48.50;;;;;;8367598;28;19924;-44
2022/10/09 10:02:49;;;;;;;;;;;19.90;48.50;;;;;;8357783;28;19920;-44
2022/10/09 10:06:49;;;;;;;;;;;20.00;48.50;;;;;;8344176;28;20416;-44
2022/10/09 10:10:51;;;;;;;;;;;20.00;48.50;;;;;;8367085;28;20336;-43
2022/10/09 10:14:51;;;;;;;;;;;20.00;48.50;;;;;;8367117;28;19917;-42
2022/10/09 10:18:53;;;;;;;;;;;20.00;48.50;;;;;;8366812;28;19917;-43
2022/10/09 10:22:55;;;;;;;;;;;20.00;48.50;;;;;;8366854;28;20014;-44
2022/10/09 10:26:58;;;;;;;;;;;20.00;48.50;;;;;;8366388;28;20301;-43
2022/10/09 10:31:00;;;;;;;;;;;20.00;48.50;;;;;;8366524;28;19913;-46
2022/10/09 10:35:13;;;;;;;;;;;20.00;48.40;;;;;;8366684;28;19917;-45
2022/10/09 10:39:21;;;;;;;;;;;20.00;48.40;;;;;;8364979;28;19923;-44
2022/10/09 10:43:32;;;;;;;;;;;20.00;48.40;;;;;;8366137;28;19924;-44
2022/10/09 10:47:34;;;;;;;;;;;20.10;48.40;;;;;;8366151;28;20275;-44
2022/10/09 10:51:45;;;;;;;;;;;20.10;48.50;;;;;;8365527;28;19917;-44
2022/10/09 10:55:46;;;;;;;;;;;20.10;48.40;;;;;;8366319;28;19913;-45
2022/10/09 10:59:55;;;;;;;;;;;20.10;48.40;;;;;;8365445;28;19962;-44
2022/10/09 11:04:08;;;;;;;;;;;20.10;48.40;;;;;;8365880;28;19917;-43
2022/10/09 11:08:11;;;;;;;;;;;20.10;48.40;;;;;;8365719;28;19920;-46
2022/10/09 11:12:15;;;;;;;;;;;20.10;48.40;;;;;;8364898;28;19923;-44
2022/10/09 11:16:15;;;;;;;;;;;20.10;48.40;;;;;;8365457;28;20281;-44
2022/10/09 11:20:36;;;;;;;;;;;20.10;48.90;;;;;;8365270;28;19948;-45
2022/10/09 11:24:55;;;;;;;;;;;20.10;48.40;;;;;;8363826;28;19972;-44
2022/10/09 11:29:01;;;;;;;;;;;20.20;48.40;;;;;;8364817;28;20361;-44
2022/10/09 11:33:04;;;;;;;;;;;20.20;48.30;;;;;;8364292;28;19975;-43
2022/10/09 11:37:11;;;;;;;;;;;20.20;48.30;;;;;;8364530;28;20007;-45
2022/10/09 11:41:11;;;;;;;;;;;20.20;48.30;;;;;;8364787;28;20369;-44
2022/10/09 11:45:27;;;;;;;;;;;20.20;48.30;;;;;;8363787;28;19931;-43
2022/10/09 11:49:38;;;;;;;;;;;20.20;48.30;;;;;;8370005;28;19917;-44
2022/10/09 11:53:39;;;;;;;;;;;20.30;48.30;;;;;;8363874;28;19962;-44
2022/10/09 11:57:39;;;;;;;;;;;20.30;48.30;;;;;;8364389;28;20004;-45
2022/10/09 12:01:41;;;;;;;;;;;20.30;48.30;;;;;;8363746;28;19923;-45
2022/10/09 12:05:43;;;;;;;;;;;20.30;48.30;;;;;;8363601;28;20381;-45
2022/10/09 12:09:47;;;;;;;;;;;20.30;48.30;;;;;;8363977;28;19924;-46
2022/10/09 12:13:49;;;;;;;;;;;20.30;48.30;;;;;;8363529;28;19951;-44
2022/10/09 12:17:50;;;;;;;;;;;20.30;48.30;;;;;;8363078;28;19944;-43
2022/10/09 12:21:56;;;;;;;;;;;20.30;48.30;;;;;;8363767;28;19913;-44
2022/10/09 12:25:57;;;;;;;;;;;20.30;48.30;;;;;;8363777;28;20002;-44
2022/10/09 12:30:04;;;;;;;;;;;20.30;48.30;;;;;;8362738;28;19999;-44
2022/10/09 12:34:19;;;;;;;;;;;20.30;48.30;;;;;;8363051;28;19917;-45
2022/10/09 12:38:23;;;;;;;;;;;20.40;48.30;;;;;;8363173;28;20191;-45
2022/10/09 12:42:24;;;;;;;;;;;20.40;48.30;;;;;;8362679;28;19921;-44
2022/10/09 12:46:34;;;;;;;;;;;20.40;48.30;;;;;;8363184;28;19920;-44
2022/10/09 12:50:35;;;;;;;;;;;20.40;48.30;;;;;;8363049;28;19917;-45
2022/10/09 12:54:40;;;;;;;;;;;20.40;48.30;;;;;;8362421;28;19917;-44
2022/10/09 12:58:42;;;;;;;;;;;20.30;48.30;;;;;;8362770;28;19921;-46
2022/10/09 13:02:42;;;;;;;;;;;20.40;48.40;;;;;;8366276;28;19917;-43
2022/10/09 13:06:46;;;;;;;;;;;20.40;48.30;;;;;;8336705;28;20389;-45
2022/10/09 13:10:46;;;;;;;;;;;20.40;48.30;;;;;;8368727;28;20370;-44
2022/10/09 13:14:50;;;;;;;;;;;20.40;48.30;;;;;;8368521;28;19928;-43
2022/10/09 13:18:56;;;;;;;;;;;20.40;48.30;;;;;;8369176;28;20271;-44
2022/10/09 13:22:58;;;;;;;;;;;20.40;48.20;;;;;;8368738;28;20317;-44
2022/10/09 13:26:58;;;;;;;;;;;20.40;48.30;;;;;;8368240;28;20063;-44
2022/10/09 13:31:06;;;;;;;;;;;20.40;48.70;;;;;;8335710;28;19936;-44
2022/10/09 13:35:06;;;;;;;;;;;20.40;48.20;;;;;;8361007;28;20366;-44
2022/10/09 13:39:12;;;;;;;;;;;20.40;48.30;;;;;;8367726;28;19924;-44
2022/10/09 13:43:19;;;;;;;;;;;20.40;48.30;;;;;;8368558;28;20051;-46
2022/10/09 13:47:21;;;;;;;;;;;20.50;48.30;;;;;;8368275;28;19921;-46
2022/10/09 13:51:21;;;;;;;;;;;20.40;48.30;;;;;;8367555;28;19912;-43
2022/10/09 13:55:22;;;;;;;;;;;20.40;48.30;;;;;;8367747;28;19916;-44
2022/10/09 13:59:23;;;;;;;;;;;20.40;48.30;;;;;;8367689;28;19917;-44
2022/10/09 14:03:23;;;;;;;;;;;20.40;48.30;;;;;;8366919;28;19917;-43
2022/10/09 14:07:24;;;;;;;;;;;20.40;48.30;;;;;;8367183;28;20293;-43
2022/10/09 14:11:24;;;;;;;;;;;20.40;48.30;;;;;;8367422;28;20239;-44
2022/10/09 14:15:25;;;;;;;;;;;20.40;48.30;;;;;;8366537;28;20008;-43
2022/10/09 14:19:26;;;;;;;;;;;20.40;48.30;;;;;;8366771;28;19923;-44
2022/10/09 14:23:27;;;;;;;;;;;20.40;48.30;;;;;;8366674;28;19917;-43
2022/10/09 14:27:27;;;;;;;;;;;20.40;48.30;;;;;;8366053;28;20282;-44
2022/10/09 14:31:28;;;;;;;;;;;20.40;48.40;;;;;;8366603;28;19912;-44
2022/10/09 14:35:29;;;;;;;;;;;20.40;48.40;;;;;;8366468;28;19924;-43
2022/10/09 14:39:29;;;;;;;;;;;20.40;48.40;;;;;;8365644;28;19917;-44
2022/10/09 14:43:30;;;;;;;;;;;20.40;48.40;;;;;;8366019;28;19947;-44
2022/10/09 14:47:30;;;;;;;;;;;20.40;48.40;;;;;;8365943;28;19925;-43
2022/10/09 14:51:30;;;;;;;;;;;20.40;48.40;;;;;;8365389;28;19924;-44
2022/10/09 14:55:33;;;;;;;;;;;20.30;48.40;;;;;;8365572;28;19970;-44
2022/10/09 14:59:33;;;;;;;;;;;20.40;48.40;;;;;;8365590;28;19913;-44
2022/10/09 15:03:34;;;;;;;;;;;20.40;48.40;;;;;;8365036;28;19923;-44
2022/10/09 15:07:34;;;;;;;;;;;20.40;48.40;;;;;;8365567;28;20006;-45
2022/10/09 15:11:34;;;;;;;;;;;20.40;48.40;;;;;;8365194;28;19924;-47
2022/10/09 15:15:35;;;;;;;;;;;20.40;48.50;;;;;;8364680;28;19916;-45
2022/10/09 15:19:36;;;;;;;;;;;20.40;48.50;;;;;;8364995;28;20369;-45
2022/10/09 15:23:36;;;;;;;;;;;20.40;49.00;;;;;;8364538;28;20336;-45
2022/10/09 15:27:37;;;;;;;;;;;20.40;48.40;;;;;;8364388;28;19920;-43
2022/10/09 15:31:39;;;;;;;;;;;20.40;48.50;;;;;;8364511;28;19923;-45
2022/10/09 15:35:39;;;;;;;;;;;20.40;48.50;;;;;;8364333;28;19934;-43
2022/10/09 15:39:40;;;;;;;;;;;20.40;48.50;;;;;;8364267;28;20408;-44
2022/10/09 15:43:41;;;;;;;;;;;20.40;48.50;;;;;;8364411;28;19928;-43
2022/10/09 15:47:41;;;;;;;;;;;20.40;48.50;;;;;;8364013;28;19932;-45
2022/10/09 15:51:42;;;;;;;;;;;20.40;48.50;;;;;;8364041;28;20439;-44
2022/10/09 15:55:43;;;;;;;;;;;20.40;48.50;;;;;;8364073;28;20289;-44
2022/10/09 15:59:44;;;;;;;;;;;20.40;48.50;;;;;;8363532;28;20322;-42
2022/10/09 16:03:44;;;;;;;;;;;20.40;48.50;;;;;;8364008;28;19963;-43
2022/10/09 16:07:45;;;;;;;;;;;20.40;48.50;;;;;;8362855;28;20397;-42
2022/10/09 16:11:45;;;;;;;;;;;20.40;48.50;;;;;;8363284;28;20439;-44
2022/10/09 16:15:46;;;;;;;;;;;20.40;48.50;;;;;;8363781;28;19959;-43
2022/10/09 16:19:47;;;;;;;;;;;20.40;48.50;;;;;;8363393;28;19917;-43
2022/10/09 16:23:47;;;;;;;;;;;20.40;48.50;;;;;;8362846;28;19921;-42
2022/10/09 16:27:47;;;;;;;;;;;20.40;48.50;;;;;;8363351;28;19928;-43
2022/10/09 16:31:48;;;;;;;;;;;20.30;48.50;;;;;;8362955;28;20301;-42
2022/10/09 16:35:48;;;;;;;;;;;20.40;48.50;;;;;;8363389;28;20003;-42
2022/10/09 16:39:49;;;;;;;;;;;20.40;48.50;;;;;;8370066;28;20047;-44
2022/10/09 16:43:51;;;;;;;;;;;20.40;48.50;;;;;;8370195;28;19924;-44
2022/10/09 16:47:51;;;;;;;;;;;20.30;48.40;;;;;;8369545;28;19960;-45
2022/10/09 16:51:52;;;;;;;;;;;20.30;48.40;;;;;;8368306;28;19923;-43
2022/10/09 16:55:52;;;;;;;;;;;20.40;48.50;;;;;;8369311;28;19940;-44
2022/10/09 16:59:52;;;;;;;;;;;20.30;48.50;;;;;;8368903;28;19921;-43
2022/10/09 17:03:54;;;;;;;;;;;20.40;48.50;;;;;;8369134;28;19917;-42
2022/10/09 17:07:54;;;;;;;;;;;20.30;48.50;;;;;;8369326;28;20300;-45
2022/10/09 17:11:55;;;;;;;;;;;20.30;48.50;;;;;;8368546;28;19917;-43
2022/10/09 17:15:56;;;;;;;;;;;20.30;48.50;;;;;;8368921;28;20008;-44
2022/10/09 17:19:56;;;;;;;;;;;20.30;48.50;;;;;;8368812;28;19917;-42
2022/10/09 17:23:58;;;;;;;;;;;20.30;48.50;;;;;;8368350;28;19924;-44
2022/10/09 17:27:59;;;;;;;;;;;20.30;48.50;;;;;;8369124;28;20389;-43
2022/10/09 17:31:59;;;;;;;;;;;20.30;48.60;;;;;;8368637;28;19924;-43
2022/10/09 17:36:01;;;;;;;;;;;20.30;48.60;;;;;;8367902;28;20004;-43
2022/10/09 17:40:01;;;;;;;;;;;20.30;48.60;;;;;;8368172;28;19920;-43
2022/10/09 17:44:02;;;;;;;;;;;20.30;48.60;;;;;;8368289;28;19924;-45
2022/10/09 17:48:03;;;;;;;;;;;20.30;49.10;;;;;;8367452;28;20389;-43
2022/10/09 17:52:04;;;;;;;;;;;20.30;48.60;;;;;;8367939;28;19916;-43
2022/10/09 17:56:04;;;;;;;;;;;20.30;48.60;;;;;;8367848;28;20008;-44
2022/10/09 18:00:05;;;;;;;;;;;20.30;48.60;;;;;;8367187;28;20401;-44
2022/10/09 18:04:05;;;;;;;;;;;20.30;48.70;;;;;;8367665;28;19982;-43
2022/10/09 18:08:06;;;;;;;;;;;20.30;48.60;;;;;;8367574;28;19913;-44
2022/10/09 18:12:06;;;;;;;;;;;20.30;48.60;;;;;;8366735;28;19916;-45
2022/10/09 18:16:08;;;;;;;;;;;20.30;48.60;;;;;;8366969;28;20305;-43
2022/10/09 18:20:08;;;;;;;;;;;20.30;48.70;;;;;;8367106;28;19924;-44
2022/10/09 18:24:09;;;;;;;;;;;20.30;48.60;;;;;;8366352;28;20278;-44
2022/10/09 18:28:10;;;;;;;;;;;20.30;48.70;;;;;;8366983;28;20270;-43
2022/10/09 18:32:11;;;;;;;;;;;20.30;48.70;;;;;;8366720;28;19927;-44
2022/10/09 18:36:17;;;;;;;;;;;20.30;48.70;;;;;;8365978;28;19917;-44
2022/10/09 18:40:18;;;;;;;;;;;20.30;48.70;;;;;;8366737;28;19920;-44
2022/10/09 18:44:20;;;;;;;;;;;20.30;48.70;;;;;;8366289;28;19940;-43
2022/10/09 18:48:20;;;;;;;;;;;20.30;48.80;;;;;;8365979;28;20305;-43
2022/10/09 18:52:21;;;;;;;;;;;20.30;48.70;;;;;;8365869;28;19917;-45
2022/10/09 18:56:22;;;;;;;;;;;20.30;48.70;;;;;;8365895;28;19916;-43
2022/10/09 19:00:22;;;;;;;;;;;20.30;48.70;;;;;;8364395;28;19917;-42
2022/10/09 19:04:23;;;;;;;;;;;20.30;48.70;;;;;;8365437;28;20335;-43
2022/10/09 19:08:23;;;;;;;;;;;20.30;48.70;;;;;;8364506;28;20433;-43
2022/10/09 19:12:24;;;;;;;;;;;20.30;48.80;;;;;;8364865;28;19923;-44
2022/10/09 19:16:25;;;;;;;;;;;20.30;48.80;;;;;;8365502;28;19917;-44
2022/10/09 19:20:27;;;;;;;;;;;20.30;48.80;;;;;;8365091;28;19924;-44
2022/10/09 19:24:28;;;;;;;;;;;20.20;48.70;;;;;;8364462;28;19921;-45
2022/10/09 19:28:29;;;;;;;;;;;20.30;48.80;;;;;;8365102;28;19920;-42
2022/10/09 19:32:30;;;;;;;;;;;20.20;48.70;;;;;;8364675;28;19916;-43
2022/10/09 19:36:35;;;;;;;;;;;20.20;48.70;;;;;;8364096;28;19920;-43
2022/10/09 19:40:35;;;;;;;;;;;20.30;48.80;;;;;;8364827;28;19921;-44
2022/10/09 19:44:39;;;;;;;;;;;20.20;48.80;;;;;;8364251;28;20008;-44
2022/10/09 19:48:40;;;;;;;;;;;20.30;48.80;;;;;;8364506;28;19912;-44
2022/10/09 19:52:44;;;;;;;;;;;20.20;48.80;;;;;;8363592;28;21384;-44
2022/10/09 19:56:44;;;;;;;;;;;20.20;48.70;;;;;;8363731;28;20297;-43
2022/10/09 20:00:48;;;;;;;;;;;20.20;48.80;;;;;;8363906;28;19916;-43
2022/10/09 20:04:48;;;;;;;;;;;20.20;48.80;;;;;;8363656;28;20086;-43
2022/10/09 20:08:49;;;;;;;;;;;20.20;48.80;;;;;;8363529;28;19917;-43
2022/10/09 20:12:49;;;;;;;;;;;20.20;48.80;;;;;;8363470;28;19917;-43
2022/10/09 20:16:50;;;;;;;;;;;20.20;48.80;;;;;;8363477;28;19921;-43
2022/10/09 20:20:50;;;;;;;;;;;20.20;48.80;;;;;;8363035;28;20298;-43
2022/10/09 20:24:52;;;;;;;;;;;20.20;48.80;;;;;;8363441;28;20297;-43
2022/10/09 20:28:52;;;;;;;;;;;20.20;48.80;;;;;;8363700;28;19947;-43
2022/10/09 20:32:54;;;;;;;;;;;20.20;48.80;;;;;;8362777;28;20373;-43
2022/10/09 20:36:54;;;;;;;;;;;20.20;48.80;;;;;;8363890;28;19917;-43
2022/10/09 20:41:06;;;;;;;;;;;20.20;48.80;;;;;;8363386;28;19920;-43
2022/10/09 20:45:06;;;;;;;;;;;20.20;48.80;;;;;;8364542;28;19921;-43
2022/10/09 20:49:10;;;;;;;;;;;20.20;48.70;;;;;;8365204;28;20418;-43
2022/10/09 20:53:11;;;;;;;;;;;20.20;48.80;;;;;;8363753;28;19924;-43
2022/10/09 20:57:11;;;;;;;;;;;20.20;48.80;;;;;;8363048;28;19919;-44
2022/10/09 21:01:14;;;;;;;;;;;20.20;48.80;;;;;;8363203;28;20282;-44
2022/10/09 21:05:15;;;;;;;;;;;20.20;48.80;;;;;;8362847;28;20366;-44
2022/10/09 21:09:15;;;;;;;;;;;20.20;48.80;;;;;;8362664;28;19948;-44
2022/10/09 21:13:16;;;;;;;;;;;20.20;48.70;;;;;;8363168;28;19916;-44
2022/10/09 21:17:16;;;;;;;;;;;20.20;48.80;;;;;;8362765;28;20003;-44
2022/10/09 21:21:18;;;;;;;;;;;20.20;48.80;;;;;;8362188;28;19917;-44
2022/10/09 21:25:18;;;;;;;;;;;20.20;48.80;;;;;;8368856;28;19924;-43
2022/10/09 21:29:18;;;;;;;;;;;20.20;48.80;;;;;;8368946;28;19960;-42
2022/10/09 21:33:19;;;;;;;;;;;20.20;48.70;;;;;;8368243;28;19916;-43
2022/10/09 21:37:19;;;;;;;;;;;20.10;48.70;;;;;;8368740;28;20285;-43
2022/10/09 21:41:20;;;;;;;;;;;20.20;48.70;;;;;;8368187;28;19940;-43
2022/10/09 21:45:20;;;;;;;;;;;20.10;48.70;;;;;;8367683;28;19932;-44
2022/10/09 21:49:23;;;;;;;;;;;20.10;48.70;;;;;;8368200;28;19921;-42
2022/10/09 21:53:23;;;;;;;;;;;20.10;48.70;;;;;;8367966;28;19921;-43
2022/10/09 21:57:24;;;;;;;;;;;20.10;48.70;;;;;;8367369;28;20381;-44
2022/10/09 22:01:24;;;;;;;;;;;20.10;48.70;;;;;;8364546;28;20378;-44
2022/10/09 22:05:25;;;;;;;;;;;20.10;48.70;;;;;;8367798;28;19928;-44
2022/10/09 22:09:25;;;;;;;;;;;20.10;48.70;;;;;;8347441;28;19917;-43
2022/10/09 22:13:26;;;;;;;;;;;20.10;48.70;;;;;;8359109;28;19917;-43
2022/10/09 22:17:26;;;;;;;;;;;20.10;48.70;;;;;;8367222;28;19947;-43
2022/10/09 22:21:27;;;;;;;;;;;20.10;48.70;;;;;;8366532;28;20001;-44
2022/10/09 22:25:27;;;;;;;;;;;20.10;48.70;;;;;;8367128;28;20378;-44
2022/10/09 22:29:28;;;;;;;;;;;20.10;48.80;;;;;;8367458;28;19923;-44
2022/10/09 22:33:28;;;;;;;;;;;20.10;48.70;;;;;;8364938;28;19923;-43
2022/10/09 22:37:29;;;;;;;;;;;20.10;48.80;;;;;;8366539;28;19917;-43
2022/10/09 22:41:29;;;;;;;;;;;20.10;48.80;;;;;;8366260;28;19936;-45
2022/10/09 22:45:30;;;;;;;;;;;20.10;48.80;;;;;;8366066;28;19921;-45
2022/10/09 22:49:30;;;;;;;;;;;20.10;48.80;;;;;;8366125;28;20305;-43
2022/10/09 22:53:31;;;;;;;;;;;20.10;48.80;;;;;;8366155;28;19963;-43
2022/10/09 22:57:31;;;;;;;;;;;20.10;48.80;;;;;;8365508;28;19921;-43
2022/10/09 23:01:37;;;;;;;;;;;20.00;48.80;;;;;;8365938;28;19924;-43
2022/10/09 23:05:37;;;;;;;;;;;20.10;48.80;;;;;;8365923;28;19920;-43
2022/10/09 23:09:37;;;;;;;;;;;20.00;48.80;;;;;;8365150;28;19965;-43
2022/10/09 23:13:38;;;;;;;;;;;20.00;48.80;;;;;;8365556;28;19924;-43
2022/10/09 23:17:39;;;;;;;;;;;20.00;48.80;;;;;;8364934;28;20000;-43
2022/10/09 23:21:40;;;;;;;;;;;20.00;48.80;;;;;;8365069;28;20354;-43
2022/10/09 23:25:41;;;;;;;;;;;20.00;48.80;;;;;;8365254;28;19928;-43